Terminal Aerodrome Forecast
Issued by NWS Houston/Galveston TX

Home | Current Version | Previous Version | Text Only | Print | Product List | Glossary On
Versions: 1 2 3 4 5 6 7 8 9 10 11 12 13 14 15 16 17 18 19 20 21 22 23 24 25 26 27 28 29 30 31 32 33 34 35 36
000
FTUS44 KHGX 250523
TAFHOU
TAF
KHOU 250523Z 2506/2606 15008KT P6SM BKN015 BKN025
     FM251600 15012KT P6SM SCT015 BKN150
     FM252100 14012KT P6SM VCSH SCT025 OVC150
     FM260100 15011KT P6SM SCT015 BKN150=

USA.gov is the U.S. government's official web portal to all federal, state and local government web resources and services.